createdAt,value
2023-03-17T00:00:18.872Z,29.807
2023-03-17T00:05:18.918Z,29.807
2023-03-17T00:10:15.813Z,29.807
2023-03-17T00:15:15.860Z,29.808
2023-03-17T00:20:19.114Z,29.808
2023-03-17T00:25:18.906Z,29.808
2023-03-17T00:30:18.995Z,29.811
2023-03-17T00:35:19.002Z,29.811
2023-03-17T00:40:18.960Z,29.811
2023-03-17T00:45:19.063Z,29.810
2023-03-17T00:50:19.208Z,29.810
2023-03-17T00:55:18.937Z,29.810
2023-03-17T01:00:19.031Z,29.817
2023-03-17T01:05:15.939Z,29.817
2023-03-17T01:10:15.960Z,29.817
2023-03-17T01:15:19.053Z,29.821
2023-03-17T01:20:19.095Z,29.821
2023-03-17T01:25:19.068Z,29.821
2023-03-17T01:30:19.098Z,29.818
2023-03-17T01:35:19.101Z,29.818
2023-03-17T01:40:19.073Z,29.818
2023-03-17T01:45:19.173Z,29.824
2023-03-17T01:50:19.098Z,29.824
2023-03-17T01:55:19.372Z,29.824
2023-03-17T02:00:16.065Z,29.826
2023-03-17T02:05:19.146Z,29.826
2023-03-17T02:10:19.165Z,29.826
2023-03-17T02:15:19.211Z,29.832
2023-03-17T02:20:19.158Z,29.832
2023-03-17T02:25:19.111Z,29.832
2023-03-17T02:30:19.206Z,29.837
2023-03-17T02:35:19.261Z,29.837
2023-03-17T02:40:19.268Z,29.837
2023-03-17T02:45:19.233Z,29.839
2023-03-17T02:50:16.226Z,29.839
2023-03-17T02:55:16.175Z,29.839
2023-03-17T03:00:19.200Z,29.837
2023-03-17T03:05:19.383Z,29.837
2023-03-17T03:10:19.357Z,29.837
2023-03-17T03:15:19.297Z,29.833
2023-03-17T03:20:19.303Z,29.833
2023-03-17T03:25:19.344Z,29.833
2023-03-17T03:30:19.285Z,29.833
2023-03-17T03:35:19.377Z,29.833
2023-03-17T03:40:19.475Z,29.833
2023-03-17T03:45:16.352Z,29.829
2023-03-17T03:50:16.217Z,29.829
2023-03-17T03:55:19.676Z,29.829
2023-03-17T04:00:15.548Z,29.825
2023-03-17T04:05:15.485Z,29.825
2023-03-17T04:10:18.669Z,29.825
2023-03-17T04:15:18.678Z,29.832
2023-03-17T04:20:18.618Z,29.832
2023-03-17T04:25:18.748Z,29.832
2023-03-17T04:30:18.662Z,29.839
2023-03-17T04:35:18.692Z,29.839
2023-03-17T04:40:18.615Z,29.839
2023-03-17T04:45:18.699Z,29.836
2023-03-17T04:50:18.923Z,29.836
2023-03-17T04:55:15.634Z,29.836
2023-03-17T05:00:18.835Z,29.836
2023-03-17T05:05:18.844Z,29.836
2023-03-17T05:10:18.786Z,29.836
2023-03-17T05:15:18.831Z,29.824
2023-03-17T05:20:18.719Z,29.824
2023-03-17T05:25:18.874Z,29.824
2023-03-17T05:30:18.852Z,29.823
2023-03-17T05:35:18.797Z,29.823
2023-03-17T05:40:18.901Z,29.823
2023-03-17T05:45:15.693Z,29.821
2023-03-17T05:50:15.845Z,29.821
2023-03-17T05:55:18.859Z,29.821
2023-03-17T06:00:18.897Z,29.823
2023-03-17T06:05:18.902Z,29.823
2023-03-17T06:10:18.896Z,29.823
2023-03-17T06:15:18.875Z,29.824
2023-03-17T06:20:18.921Z,29.824
2023-03-17T06:25:19.032Z,29.824
2023-03-17T06:30:18.933Z,29.824
2023-03-17T06:35:19.085Z,29.824
2023-03-17T06:40:15.760Z,29.824
2023-03-17T06:45:15.892Z,29.824
2023-03-17T06:50:19.040Z,29.824
2023-03-17T06:55:19.057Z,29.824
2023-03-17T07:00:19.043Z,29.824
2023-03-17T07:05:19.090Z,29.824
2023-03-17T07:10:19.007Z,29.824
2023-03-17T07:15:19.040Z,29.817
2023-03-17T07:20:19.073Z,29.817
2023-03-17T07:25:19.076Z,29.817
2023-03-17T07:30:16.000Z,29.810
2023-03-17T07:35:16.006Z,29.810
2023-03-17T07:40:19.113Z,29.810
2023-03-17T07:45:19.218Z,29.807
2023-03-17T07:50:19.201Z,29.807
2023-03-17T07:55:19.092Z,29.807
2023-03-17T08:00:19.140Z,29.811
2023-03-17T08:05:19.156Z,29.811
2023-03-17T08:10:19.059Z,29.811
2023-03-17T08:15:19.245Z,29.807
2023-03-17T08:20:19.198Z,29.807
2023-03-17T08:25:16.088Z,29.807
2023-03-17T08:30:16.089Z,29.805
2023-03-17T08:35:19.325Z,29.805
2023-03-17T08:40:19.205Z,29.805
2023-03-17T08:45:19.184Z,29.807
2023-03-17T08:50:19.198Z,29.807
2023-03-17T08:55:19.227Z,29.807
2023-03-17T09:00:19.208Z,29.806
2023-03-17T09:05:19.230Z,29.806
2023-03-17T09:10:19.298Z,29.806
2023-03-17T09:15:19.308Z,29.799
2023-03-17T09:20:16.215Z,29.799
2023-03-17T09:25:16.168Z,29.799
2023-03-17T09:30:19.447Z,29.794
2023-03-17T09:35:19.354Z,29.794
2023-03-17T09:40:19.409Z,29.794
2023-03-17T09:45:19.383Z,29.795
2023-03-17T09:50:19.346Z,29.795
2023-03-17T09:55:19.338Z,29.795
2023-03-17T10:00:19.403Z,29.795
2023-03-17T10:05:19.505Z,29.795
2023-03-17T10:10:19.448Z,29.795
2023-03-17T10:15:16.308Z,29.803
2023-03-17T10:20:19.615Z,29.803
2023-03-17T10:25:19.497Z,29.803
2023-03-17T10:30:19.594Z,29.806
2023-03-17T10:35:19.537Z,29.806
2023-03-17T10:40:19.720Z,29.806
2023-03-17T10:45:19.475Z,29.802
2023-03-17T10:50:19.551Z,29.802
2023-03-17T10:55:19.530Z,29.802
2023-03-17T11:00:19.551Z,29.794
2023-03-17T11:05:16.392Z,29.794
2023-03-17T11:10:16.643Z,29.794
2023-03-17T11:15:19.635Z,29.790
2023-03-17T11:20:19.513Z,29.790
2023-03-17T11:25:19.581Z,29.790
2023-03-17T11:30:19.560Z,29.793
2023-03-17T11:35:19.513Z,29.793
2023-03-17T11:40:19.633Z,29.793
2023-03-17T11:45:19.633Z,29.776
2023-03-17T11:50:19.611Z,29.776
2023-03-17T11:55:19.657Z,29.776
2023-03-17T12:00:16.706Z,29.791
2023-03-17T12:05:16.562Z,29.791
2023-03-17T12:10:19.692Z,29.791
2023-03-17T12:15:19.746Z,29.799
2023-03-17T12:20:19.690Z,29.799
2023-03-17T12:25:19.731Z,29.799
2023-03-17T12:30:19.722Z,29.801
2023-03-17T12:35:19.777Z,29.801
2023-03-17T12:40:19.706Z,29.801
2023-03-17T12:45:19.763Z,29.792
2023-03-17T12:50:19.767Z,29.792
2023-03-17T12:55:16.970Z,29.792
2023-03-17T13:00:19.752Z,29.792
2023-03-17T13:05:19.744Z,29.792
2023-03-17T13:10:19.820Z,29.792
2023-03-17T13:15:19.774Z,29.780
2023-03-17T13:20:19.824Z,29.780
2023-03-17T13:25:19.772Z,29.780
2023-03-17T13:30:19.774Z,29.778
2023-03-17T13:35:19.697Z,29.778
2023-03-17T13:40:19.859Z,29.778
2023-03-17T13:45:16.723Z,29.770
2023-03-17T13:50:16.770Z,29.770
2023-03-17T13:55:20.037Z,29.770
2023-03-17T14:00:19.925Z,29.770
2023-03-17T14:05:19.834Z,29.770
2023-03-17T14:10:19.903Z,29.770
2023-03-17T14:15:20.001Z,29.772
2023-03-17T14:20:19.870Z,29.772
2023-03-17T14:25:19.908Z,29.772
2023-03-17T14:30:20.048Z,29.759
2023-03-17T14:35:20.033Z,29.759
2023-03-17T14:40:16.809Z,29.759
2023-03-17T14:45:17.101Z,29.758
2023-03-17T14:50:19.954Z,29.758
2023-03-17T14:55:20.100Z,29.758
2023-03-17T15:00:19.994Z,29.748
2023-03-17T15:05:20.017Z,29.748
2023-03-17T15:10:20.067Z,29.748
2023-03-17T15:15:20.014Z,29.737
2023-03-17T15:20:20.070Z,29.737
2023-03-17T15:25:20.120Z,29.737
2023-03-17T15:30:16.998Z,29.733
2023-03-17T15:35:16.966Z,29.733
2023-03-17T15:40:20.259Z,29.733
2023-03-17T15:45:20.141Z,29.729
2023-03-17T15:50:20.015Z,29.729
2023-03-17T15:55:20.188Z,29.729
2023-03-17T16:00:20.082Z,29.724
2023-03-17T16:05:20.179Z,29.724
2023-03-17T16:10:20.112Z,29.724
2023-03-17T16:15:23.346Z,29.715
2023-03-17T16:20:20.139Z,29.715
2023-03-17T16:25:17.129Z,29.715
2023-03-17T16:30:17.157Z,29.704
2023-03-17T16:35:20.308Z,29.704
2023-03-17T16:40:20.232Z,29.704
2023-03-17T16:45:20.310Z,29.699
2023-03-17T16:50:20.277Z,29.699
2023-03-17T16:55:20.321Z,29.699
2023-03-17T17:00:20.201Z,29.689
2023-03-17T17:05:20.418Z,29.689
2023-03-17T17:10:20.280Z,29.689
2023-03-17T17:15:17.220Z,29.676
2023-03-17T17:20:17.152Z,29.676
2023-03-17T17:25:20.313Z,29.676
2023-03-17T17:30:20.293Z,29.654
2023-03-17T17:35:20.321Z,29.654
2023-03-17T17:40:20.359Z,29.654
2023-03-17T17:45:20.395Z,29.650
2023-03-17T17:50:20.275Z,29.650
2023-03-17T17:55:20.503Z,29.650
2023-03-17T18:00:20.366Z,29.636
2023-03-17T18:05:20.383Z,29.636
2023-03-17T18:10:17.312Z,29.636
2023-03-17T18:15:17.228Z,29.625
2023-03-17T18:20:20.386Z,29.625
2023-03-17T18:25:20.352Z,29.625
2023-03-17T18:30:20.472Z,29.621
2023-03-17T18:35:20.539Z,29.621
2023-03-17T18:40:20.540Z,29.621
2023-03-17T18:45:20.518Z,29.613
2023-03-17T18:50:20.460Z,29.613
2023-03-17T18:55:20.506Z,29.613
2023-03-17T19:00:20.492Z,29.605
2023-03-17T19:05:17.412Z,29.605
2023-03-17T19:10:20.542Z,29.605
2023-03-17T19:15:20.498Z,29.592
2023-03-17T19:20:20.545Z,29.592
2023-03-17T19:25:20.418Z,29.592
2023-03-17T19:30:20.624Z,29.577
2023-03-17T19:35:20.594Z,29.577
2023-03-17T19:40:20.525Z,29.577
2023-03-17T19:45:20.568Z,29.568
2023-03-17T19:50:20.645Z,29.568
2023-03-17T19:55:17.624Z,29.568
2023-03-17T20:00:18.583Z,29.549
2023-03-17T20:05:18.630Z,29.549
2023-03-17T20:10:18.672Z,29.549
2023-03-17T20:15:18.615Z,29.529
2023-03-17T20:20:18.620Z,29.529
2023-03-17T20:25:18.590Z,29.529
2023-03-17T20:30:18.860Z,29.531
2023-03-17T20:35:15.584Z,29.531
2023-03-17T20:40:15.806Z,29.531
2023-03-17T20:45:19.760Z,29.521
2023-03-17T20:50:19.710Z,29.521
2023-03-17T20:55:19.742Z,29.521
2023-03-17T21:00:19.782Z,29.503
2023-03-17T21:05:16.709Z,29.503
2023-03-17T21:10:16.615Z,29.503
2023-03-17T21:15:19.810Z,29.504
2023-03-17T21:20:19.693Z,29.504
2023-03-17T21:25:19.831Z,29.504
2023-03-17T21:30:19.700Z,29.512
2023-03-17T21:35:19.800Z,29.512
2023-03-17T21:40:19.835Z,29.512
2023-03-17T21:45:19.829Z,29.512
2023-03-17T21:50:19.833Z,29.512
2023-03-17T21:55:19.876Z,29.512
2023-03-17T22:00:16.699Z,29.508
2023-03-17T22:05:16.750Z,29.508
2023-03-17T22:10:19.922Z,29.508
2023-03-17T22:15:20.041Z,29.513
2023-03-17T22:20:19.856Z,29.513
2023-03-17T22:25:22.866Z,29.513
2023-03-17T22:30:20.310Z,29.514
2023-03-17T22:35:19.865Z,29.514
2023-03-17T22:40:19.876Z,29.514
2023-03-17T22:45:19.898Z,29.514
2023-03-17T22:50:19.858Z,29.514
2023-03-17T22:55:16.864Z,29.514
2023-03-17T23:00:20.189Z,29.507
2023-03-17T23:05:20.035Z,29.507
2023-03-17T23:10:19.938Z,29.507
2023-03-17T23:15:20.146Z,29.511
2023-03-17T23:20:19.922Z,29.511
2023-03-17T23:25:20.055Z,29.511
2023-03-17T23:30:20.061Z,29.496
2023-03-17T23:35:20.054Z,29.496
2023-03-17T23:40:19.997Z,29.496
2023-03-17T23:45:16.918Z,29.498
2023-03-17T23:50:16.919Z,29.498
2023-03-17T23:55:20.076Z,29.498
